Lammy — PBRE — position and weather

sailwx.info

Track history (hours):
 
Tides and Currents Weather Stations Pressure Air Temp Water Temp Dewpoint Dewpoint Depression Visibility Wind Speed Wind Dir Waves Ship Positions

Lammy

Last reported at 2017-Feb-19 13:33 UTC. Time now 2017-Feb-19 14:32 UTC.
Position N 56°08' E 012°30'.

Length 95 m; draft 3.9 m.

Type: Cargo ship. MMSI: 245391000.

Date/timePositionNaut miles runAvg speedWind from/ knotsBaromVisibWave heightAir tempDewpointWater temp
2017-Feb-19 13:33N 56°08' E 012°30'6813.6
2017-Feb-19 08:33N 57°09' E 011°33'1313.2
2017-Feb-19 07:33N 57°21' E 011°23'1312.7
2017-Feb-19 06:33N 57°31' E 011°09'1312.9
2017-Feb-19 05:33N 57°41' E 010°53'4412.8
2017-Feb-19 02:07N 57°31' E 009°33'814.3
2017-Feb-19 01:33N 57°26' E 009°21'38613.8
2017-Feb-17 21:32N 53°34' E 000°17'1110.8
2017-Feb-17 20:33N 53°35' W 000°01'7 6.9
2017-Feb-17 19:34N 53°38' W 000°11'0 0.0
2017-Feb-17 14:33N 53°38' W 000°11'0 0.0
2017-Feb-17 13:30N 53°38' W 000°11'0 0.0
2017-Feb-17 12:33N 53°38' W 000°11'0 0.0
2017-Feb-17 11:23N 53°38' W 000°11'0 0.0
2017-Feb-17 10:33N 53°38' W 000°11'0 0.0
2017-Feb-17 09:23N 53°38' W 000°11'0 0.0
2017-Feb-17 08:29N 53°38' W 000°11'0 0.0
2017-Feb-17 07:33N 53°38' W 000°11'0 0.0
2017-Feb-17 06:27N 53°38' W 000°11'0 0.0
2017-Feb-17 02:30N 53°38' W 000°11'0 0.0
2017-Feb-16 20:12N 53°38' W 000°11'0 0.3
2017-Feb-16 19:33N 53°38' W 000°11'1 1.3
2017-Feb-16 18:33N 53°39' W 000°12'6 6.0
2017-Feb-16 17:33N 53°44' W 000°16'0 0.4
2017-Feb-16 16:34N 53°45' W 000°16'0 0.0
2017-Feb-16 15:31N 53°45' W 000°16'0 0.0
2017-Feb-16 14:33N 53°45' W 000°16'0 0.0
2017-Feb-16 13:33N 53°45' W 000°16'0 0.0
2017-Feb-16 12:33N 53°45' W 000°16'0 0.0
2017-Feb-16 11:31N 53°45' W 000°16'0 0.0
2017-Feb-16 10:31N 53°45' W 000°16'0 0.0
2017-Feb-16 09:33N 53°45' W 000°16'0 0.0
2017-Feb-16 08:33N 53°45' W 000°16'0 0.0
2017-Feb-16 07:34N 53°45' W 000°16'0 0.0
2017-Feb-16 06:34N 53°45' W 000°16'0 0.0
2017-Feb-16 05:31N 53°45' W 000°16'0 0.0
2017-Feb-16 04:34N 53°45' W 000°16'0 0.0
2017-Feb-16 03:31N 53°45' W 000°16'0 0.0
2017-Feb-16 02:34N 53°45' W 000°16'0 0.0
2017-Feb-16 01:31N 53°45' W 000°16'0 0.0
2017-Feb-16 00:31N 53°45' W 000°16'0 0.0
2017-Feb-15 23:33N 53°45' W 000°16'0 0.0
2017-Feb-15 22:33N 53°45' W 000°16'0 0.0
2017-Feb-15 21:33N 53°45' W 000°16'3 3.0
2017-Feb-15 20:33N 53°42' W 000°14'1312.6
2017-Feb-15 19:32N 53°35' E 000°04'32912.6
2017-Feb-14 17:29N 56°52' E 007°46'4113.6
2017-Feb-14 14:30N 57°15' E 008°47'1313.3
2017-Feb-14 13:32N 57°22' E 009°07'1313.2
2017-Feb-14 12:33N 57°28' E 009°28'1413.5
2017-Feb-14 11:33N 57°36' E 009°49'1313.4
2017-Feb-14 10:33N 57°41' E 010°12'1414.3
2017-Feb-14 09:33N 57°46' E 010°37'1312.8
2017-Feb-14 08:33N 57°41' E 010°60'1313.1
2017-Feb-14 07:33N 57°32' E 011°17'1312.5
2017-Feb-14 06:33N 57°22' E 011°30'1313.0
2017-Feb-14 05:32N 57°10' E 011°39'1212.6
2017-Feb-14 04:33N 56°58' E 011°48'1212.3
2017-Feb-14 03:33N 56°47' E 011°57'1312.7
2017-Feb-14 02:32N 56°35' E 012°08'1212.6
2017-Feb-14 01:33N 56°24' E 012°17'1312.9
2017-Feb-14 00:33N 56°13' E 012°27'1413.5
2017-Feb-13 23:33N 56°01' E 012°40'1312.6
2017-Feb-13 22:33N 55°49' E 012°44'1111.5
2017-Feb-13 21:33N 55°37' E 012°42'1211.8
2017-Feb-13 20:33N 55°26' E 012°41'1110.1
2017-Feb-13 19:30N 55°16' E 012°51'1313.0
2017-Feb-13 18:31N 55°15' E 013°13'1313.1
2017-Feb-13 17:33N 55°14' E 013°35'1312.9
2017-Feb-13 16:33N 55°14' E 013°58'1212.3
2017-Feb-13 15:33N 55°16' E 014°19'1313.2
2017-Feb-13 14:33N 55°26' E 014°35'1313.2
2017-Feb-13 13:33N 55°32' E 014°55'27112.3
2017-Feb-12 15:33N 59°18' E 019°33'1412.6
2017-Feb-12 14:28N 59°31' E 019°43'1112.3
2017-Feb-12 13:33N 59°42' E 019°40'1313.1
2017-Feb-12 12:33N 59°53' E 019°25'1413.2
2017-Feb-12 11:29N 60°05' E 019°09'1212.6
2017-Feb-12 10:30N 60°16' E 019°01'  
2017-Feb-10 03:28N 60°24' E 019°01'1111.9
2017-Feb-10 02:33N 60°13' E 019°05'1212.0
2017-Feb-10 01:33N 60°02' E 019°16'1212.3
2017-Feb-10 00:33N 59°52' E 019°29'1312.5
2017-Feb-09 23:33N 59°41' E 019°41'1411.6
2017-Feb-09 22:19N 59°26' E 019°40'2211.9
2017-Feb-09 20:26N 59°08' E 019°14'  
Track history (hours):
 
Tides and Currents Weather Stations Pressure Air Temp Water Temp Dewpoint Dewpoint Depression Visibility Wind Speed Wind Dir Waves Ship Positions

Lammy

Last reported at 2017-Feb-19 13:33 UTC. Time now 2017-Feb-19 14:32 UTC.
Position N 56°08' E 012°30'.

Length 95 m; draft 3.9 m.

Type: Cargo ship. MMSI: 245391000.

Date/timePositionNaut miles runAvg speedWind from/ knotsBaromVisibWave heightAir tempDewpointWater temp
2017-Feb-19 13:33N 56°08' E 012°30'6813.6
2017-Feb-19 08:33N 57°09' E 011°33'1313.2
2017-Feb-19 07:33N 57°21' E 011°23'1312.7
2017-Feb-19 06:33N 57°31' E 011°09'1312.9
2017-Feb-19 05:33N 57°41' E 010°53'4412.8
2017-Feb-19 02:07N 57°31' E 009°33'814.3
2017-Feb-19 01:33N 57°26' E 009°21'38613.8
2017-Feb-17 21:32N 53°34' E 000°17'1110.8
2017-Feb-17 20:33N 53°35' W 000°01'7 6.9
2017-Feb-17 19:34N 53°38' W 000°11'0 0.0
2017-Feb-17 14:33N 53°38' W 000°11'0 0.0
2017-Feb-17 13:30N 53°38' W 000°11'0 0.0
2017-Feb-17 12:33N 53°38' W 000°11'0 0.0
2017-Feb-17 11:23N 53°38' W 000°11'0 0.0
2017-Feb-17 10:33N 53°38' W 000°11'0 0.0
2017-Feb-17 09:23N 53°38' W 000°11'0 0.0
2017-Feb-17 08:29N 53°38' W 000°11'0 0.0
2017-Feb-17 07:33N 53°38' W 000°11'0 0.0
2017-Feb-17 06:27N 53°38' W 000°11'0 0.0
2017-Feb-17 02:30N 53°38' W 000°11'0 0.0
2017-Feb-16 20:12N 53°38' W 000°11'0 0.3
2017-Feb-16 19:33N 53°38' W 000°11'1 1.3
2017-Feb-16 18:33N 53°39' W 000°12'6 6.0
2017-Feb-16 17:33N 53°44' W 000°16'0 0.4
2017-Feb-16 16:34N 53°45' W 000°16'0 0.0
2017-Feb-16 15:31N 53°45' W 000°16'0 0.0
2017-Feb-16 14:33N 53°45' W 000°16'0 0.0
2017-Feb-16 13:33N 53°45' W 000°16'0 0.0
2017-Feb-16 12:33N 53°45' W 000°16'0 0.0
2017-Feb-16 11:31N 53°45' W 000°16'0 0.0
2017-Feb-16 10:31N 53°45' W 000°16'0 0.0
2017-Feb-16 09:33N 53°45' W 000°16'0 0.0
2017-Feb-16 08:33N 53°45' W 000°16'0 0.0
2017-Feb-16 07:34N 53°45' W 000°16'0 0.0
2017-Feb-16 06:34N 53°45' W 000°16'0 0.0
2017-Feb-16 05:31N 53°45' W 000°16'0 0.0
2017-Feb-16 04:34N 53°45' W 000°16'0 0.0
2017-Feb-16 03:31N 53°45' W 000°16'0 0.0
2017-Feb-16 02:34N 53°45' W 000°16'0 0.0
2017-Feb-16 01:31N 53°45' W 000°16'0 0.0
2017-Feb-16 00:31N 53°45' W 000°16'0 0.0
2017-Feb-15 23:33N 53°45' W 000°16'0 0.0
2017-Feb-15 22:33N 53°45' W 000°16'0 0.0
2017-Feb-15 21:33N 53°45' W 000°16'3 3.0
2017-Feb-15 20:33N 53°42' W 000°14'1312.6
2017-Feb-15 19:32N 53°35' E 000°04'32912.6
2017-Feb-14 17:29N 56°52' E 007°46'4113.6
2017-Feb-14 14:30N 57°15' E 008°47'1313.3
2017-Feb-14 13:32N 57°22' E 009°07'1313.2
2017-Feb-14 12:33N 57°28' E 009°28'1413.5
2017-Feb-14 11:33N 57°36' E 009°49'1313.4
2017-Feb-14 10:33N 57°41' E 010°12'1414.3
2017-Feb-14 09:33N 57°46' E 010°37'1312.8
2017-Feb-14 08:33N 57°41' E 010°60'1313.1
2017-Feb-14 07:33N 57°32' E 011°17'1312.5
2017-Feb-14 06:33N 57°22' E 011°30'1313.0
2017-Feb-14 05:32N 57°10' E 011°39'1212.6
2017-Feb-14 04:33N 56°58' E 011°48'1212.3
2017-Feb-14 03:33N 56°47' E 011°57'1312.7
2017-Feb-14 02:32N 56°35' E 012°08'1212.6
2017-Feb-14 01:33N 56°24' E 012°17'1312.9
2017-Feb-14 00:33N 56°13' E 012°27'1413.5
2017-Feb-13 23:33N 56°01' E 012°40'1312.6
2017-Feb-13 22:33N 55°49' E 012°44'1111.5
2017-Feb-13 21:33N 55°37' E 012°42'1211.8
2017-Feb-13 20:33N 55°26' E 012°41'1110.1
2017-Feb-13 19:30N 55°16' E 012°51'1313.0
2017-Feb-13 18:31N 55°15' E 013°13'1313.1
2017-Feb-13 17:33N 55°14' E 013°35'1312.9
2017-Feb-13 16:33N 55°14' E 013°58'1212.3
2017-Feb-13 15:33N 55°16' E 014°19'1313.2
2017-Feb-13 14:33N 55°26' E 014°35'1313.2
2017-Feb-13 13:33N 55°32' E 014°55'27112.3
2017-Feb-12 15:33N 59°18' E 019°33'1412.6
2017-Feb-12 14:28N 59°31' E 019°43'1112.3
2017-Feb-12 13:33N 59°42' E 019°40'1313.1
2017-Feb-12 12:33N 59°53' E 019°25'1413.2
2017-Feb-12 11:29N 60°05' E 019°09'1212.6
2017-Feb-12 10:30N 60°16' E 019°01'  
2017-Feb-10 03:28N 60°24' E 019°01'1111.9
2017-Feb-10 02:33N 60°13' E 019°05'1212.0
2017-Feb-10 01:33N 60°02' E 019°16'1212.3
2017-Feb-10 00:33N 59°52' E 019°29'1312.5
2017-Feb-09 23:33N 59°41' E 019°41'1411.6
2017-Feb-09 22:19N 59°26' E 019°40'2211.9
2017-Feb-09 20:26N 59°08' E 019°14'  

Dump ship's entire track history